createdAt,value
2022-11-15T00:01:08.175Z,6.20
2022-11-15T00:03:57.896Z,6.20
2022-11-15T00:06:49.928Z,6.20
2022-11-15T00:09:35.569Z,6.20
2022-11-15T00:12:21.323Z,6.20
2022-11-15T00:15:09.426Z,6.20
2022-11-15T00:18:15.045Z,6.30
2022-11-15T00:21:07.249Z,6.30
2022-11-15T00:24:24.727Z,6.20
2022-11-15T00:27:11.729Z,6.30
2022-11-15T00:29:57.450Z,6.30
2022-11-15T00:32:45.565Z,6.30
2022-11-15T00:35:50.627Z,6.20
2022-11-15T00:38:40.188Z,6.20
2022-11-15T00:42:08.493Z,6.20
2022-11-15T00:49:13.972Z,6.20
2022-11-15T00:56:18.813Z,6.20
2022-11-15T01:03:33.516Z,6.20
2022-11-15T01:10:27.423Z,6.20
2022-11-15T01:13:13.327Z,6.20
2022-11-15T01:16:19.542Z,6.10
2022-11-15T01:19:05.425Z,6.20
2022-11-15T01:21:52.775Z,6.20
2022-11-15T01:24:40.811Z,6.20
2022-11-15T01:27:30.614Z,6.20
2022-11-15T01:30:16.775Z,6.20
2022-11-15T01:33:07.710Z,6.20
2022-11-15T01:35:58.290Z,6.20
2022-11-15T01:39:04.080Z,6.20
2022-11-15T01:41:51.035Z,6.20
2022-11-15T01:45:02.173Z,6.20
2022-11-15T01:47:56.721Z,6.20
2022-11-15T01:51:23.540Z,6.20
2022-11-15T01:54:35.010Z,6.20
2022-11-15T01:57:44.196Z,6.20
2022-11-15T02:00:33.110Z,6.20
2022-11-15T02:03:53.127Z,6.20
2022-11-15T02:06:42.683Z,6.20
2022-11-15T02:09:53.121Z,6.20
2022-11-15T02:12:39.179Z,6.20
2022-11-15T02:15:48.040Z,6.20
2022-11-15T02:18:47.808Z,6.20
2022-11-15T02:22:11.128Z,6.20
2022-11-15T02:25:10.235Z,6.30
2022-11-15T02:28:24.750Z,6.30
2022-11-15T02:31:22.905Z,6.20
2022-11-15T02:35:08.415Z,6.20
2022-11-15T02:38:37.933Z,6.20
2022-11-15T02:41:53.402Z,6.20
2022-11-15T02:44:44.636Z,6.20
2022-11-15T02:47:45.425Z,6.20
2022-11-15T02:50:37.091Z,6.20
2022-11-15T02:53:30.195Z,6.30
2022-11-15T02:56:16.265Z,6.30
2022-11-15T02:59:36.178Z,6.30
2022-11-15T03:02:32.845Z,6.20
2022-11-15T03:05:55.178Z,6.30
2022-11-15T03:08:54.871Z,6.20
2022-11-15T03:11:54.761Z,6.20
2022-11-15T03:14:58.530Z,6.20
2022-11-15T03:18:13.931Z,6.20
2022-11-15T03:21:06.097Z,6.20
2022-11-15T03:24:24.668Z,6.20
2022-11-15T03:27:15.966Z,6.20
2022-11-15T03:30:05.427Z,6.30
2022-11-15T03:32:59.094Z,6.30
2022-11-15T03:36:00.771Z,6.20
2022-11-15T03:38:58.043Z,6.10
2022-11-15T03:42:26.824Z,6.10
2022-11-15T03:45:15.431Z,6.10
2022-11-15T03:48:20.511Z,6.00
2022-11-15T03:51:13.382Z,6.00
2022-11-15T03:54:10.507Z,6.00
2022-11-15T03:57:00.075Z,6.00
2022-11-15T04:00:08.958Z,5.90
2022-11-15T04:02:58.522Z,5.90
2022-11-15T04:06:18.467Z,5.90
2022-11-15T04:09:06.156Z,5.90
2022-11-15T04:12:31.808Z,5.90
2022-11-15T04:15:22.893Z,5.90
2022-11-15T04:18:27.301Z,5.90
2022-11-15T04:21:32.701Z,5.90
2022-11-15T04:24:33.155Z,5.90
2022-11-15T04:27:18.856Z,5.90
2022-11-15T04:30:17.206Z,5.80
2022-11-15T04:33:04.084Z,5.90
2022-11-15T04:36:11.897Z,5.80
2022-11-15T04:38:59.978Z,5.80
2022-11-15T04:41:52.018Z,5.80
2022-11-15T04:44:38.037Z,5.80
2022-11-15T04:47:32.203Z,5.90
2022-11-15T04:50:18.629Z,5.80
2022-11-15T04:53:14.570Z,5.80
2022-11-15T04:56:01.703Z,5.90
2022-11-15T04:58:52.694Z,5.90
2022-11-15T05:01:45.084Z,5.80
2022-11-15T05:04:31.033Z,5.90
2022-11-15T05:07:16.615Z,5.90
2022-11-15T05:10:10.057Z,5.90
2022-11-15T05:13:20.939Z,5.90
2022-11-15T05:16:22.087Z,5.90
2022-11-15T05:19:08.410Z,5.90
2022-11-15T05:21:54.416Z,5.90
2022-11-15T05:24:44.197Z,5.90
2022-11-15T05:27:30.166Z,5.90
2022-11-15T05:30:18.229Z,5.80
2022-11-15T05:33:25.082Z,5.90
2022-11-15T05:36:42.054Z,5.90
2022-11-15T05:39:41.909Z,5.90
2022-11-15T05:42:31.497Z,5.90
2022-11-15T05:45:27.757Z,6.00
2022-11-15T05:48:16.792Z,5.90
2022-11-15T05:51:04.172Z,5.90
2022-11-15T05:53:52.451Z,6.00
2022-11-15T05:56:56.982Z,6.00
2022-11-15T05:59:44.666Z,5.90
2022-11-15T06:02:52.294Z,6.00
2022-11-15T06:05:37.939Z,6.00
2022-11-15T06:08:33.180Z,6.00
2022-11-15T06:11:19.257Z,6.00
2022-11-15T06:14:10.298Z,6.00
2022-11-15T06:16:57.068Z,6.00
2022-11-15T06:19:55.120Z,6.00
2022-11-15T06:22:44.244Z,6.00
2022-11-15T06:25:34.273Z,6.00
2022-11-15T06:28:22.379Z,6.00
2022-11-15T06:31:12.393Z,6.00
2022-11-15T06:33:58.382Z,6.00
2022-11-15T06:36:44.186Z,6.00
2022-11-15T06:39:29.864Z,6.00
2022-11-15T06:42:17.924Z,6.00
2022-11-15T06:45:09.578Z,6.00
2022-11-15T06:47:55.175Z,6.00
2022-11-15T06:50:42.883Z,6.00
2022-11-15T06:53:39.212Z,6.00
2022-11-15T06:56:25.214Z,6.00
2022-11-15T06:59:12.118Z,6.00
2022-11-15T07:02:00.123Z,6.00
2022-11-15T07:04:52.191Z,6.00
2022-11-15T07:07:39.694Z,6.00
2022-11-15T07:10:29.696Z,6.00
2022-11-15T07:13:16.796Z,6.00
2022-11-15T07:16:17.694Z,6.00
2022-11-15T07:19:29.009Z,6.00
2022-11-15T07:22:47.141Z,6.00
2022-11-15T07:25:38.109Z,6.10
2022-11-15T07:29:04.695Z,6.10
2022-11-15T07:31:51.781Z,6.10
2022-11-15T07:34:41.175Z,6.10
2022-11-15T07:37:33.890Z,6.10
2022-11-15T07:40:47.701Z,6.10
2022-11-15T07:43:35.422Z,6.10
2022-11-15T07:46:22.330Z,6.20
2022-11-15T07:49:31.145Z,6.20
2022-11-15T07:52:17.955Z,6.10
2022-11-15T07:55:04.803Z,6.20
2022-11-15T07:57:51.817Z,6.20
2022-11-15T08:00:40.896Z,6.20
2022-11-15T08:03:27.536Z,6.20
2022-11-15T08:06:21.794Z,6.20
2022-11-15T08:09:07.726Z,6.30
2022-11-15T08:11:53.466Z,6.30
2022-11-15T08:14:39.797Z,6.30
2022-11-15T08:17:33.898Z,6.40
2022-11-15T08:20:20.761Z,6.40
2022-11-15T08:23:08.967Z,6.40
2022-11-15T08:26:00.803Z,6.40
2022-11-15T08:29:01.611Z,6.50
2022-11-15T08:31:48.440Z,6.50
2022-11-15T08:34:34.600Z,6.50
2022-11-15T08:37:21.752Z,6.40
2022-11-15T08:40:11.254Z,6.60
2022-11-15T08:42:59.830Z,6.60
2022-11-15T08:45:49.896Z,6.70
2022-11-15T08:48:37.634Z,6.70
2022-11-15T08:51:24.504Z,6.60
2022-11-15T08:54:10.255Z,6.60
2022-11-15T08:57:10.551Z,6.70
2022-11-15T08:59:57.415Z,6.60
2022-11-15T09:03:04.828Z,6.70
2022-11-15T09:05:56.703Z,6.80
2022-11-15T09:09:21.298Z,6.70
2022-11-15T09:12:33.127Z,6.60
2022-11-15T09:15:56.902Z,6.70
2022-11-15T09:18:46.262Z,6.70
2022-11-15T09:22:11.510Z,6.70
2022-11-15T09:24:59.496Z,6.70
2022-11-15T09:27:59.826Z,6.70
2022-11-15T09:30:45.756Z,6.70
2022-11-15T09:33:57.867Z,6.80
2022-11-15T09:36:43.700Z,6.80
2022-11-15T09:39:31.336Z,6.80
2022-11-15T09:42:52.728Z,7.00
2022-11-15T09:45:46.788Z,7.00
2022-11-15T09:48:35.480Z,7.00
2022-11-15T09:51:49.772Z,7.10
2022-11-15T09:54:55.832Z,7.00
2022-11-15T09:57:49.538Z,6.90
2022-11-15T10:00:49.782Z,7.00
2022-11-15T10:03:40.416Z,7.10
2022-11-15T10:06:24.145Z,7.10
2022-11-15T10:08:57.079Z,7.10
2022-11-15T10:11:39.235Z,7.10
2022-11-15T10:14:21.234Z,7.10
2022-11-15T10:17:17.640Z,7.20
2022-11-15T10:19:54.479Z,7.20
2022-11-15T10:22:52.128Z,7.20
2022-11-15T10:25:29.115Z,7.20
2022-11-15T10:28:02.801Z,7.20
2022-11-15T10:30:39.583Z,7.30
2022-11-15T10:33:38.121Z,7.20
2022-11-15T10:36:16.850Z,7.40
2022-11-15T10:38:51.070Z,7.30
2022-11-15T10:41:38.588Z,7.40
2022-11-15T10:44:24.477Z,7.40
2022-11-15T10:47:23.902Z,7.40
2022-11-15T10:50:05.616Z,7.40
2022-11-15T10:52:49.007Z,7.40
2022-11-15T10:55:45.086Z,7.40
2022-11-15T11:02:35.754Z,7.50
2022-11-15T11:05:38.153Z,7.50
2022-11-15T11:08:46.857Z,7.50
2022-11-15T11:11:18.294Z,7.50
2022-11-15T11:14:13.969Z,7.50
2022-11-15T11:17:36.840Z,7.50
2022-11-15T11:20:35.952Z,7.60
2022-11-15T11:23:42.128Z,7.50
2022-11-15T11:26:18.190Z,7.50
2022-11-15T11:29:04.334Z,7.60
2022-11-15T11:31:35.443Z,7.60
2022-11-15T11:34:32.917Z,7.60
2022-11-15T11:37:39.581Z,7.60
2022-11-15T11:40:17.323Z,7.60
2022-11-15T11:43:21.800Z,7.60
2022-11-15T11:46:04.114Z,7.50
2022-11-15T11:48:44.245Z,7.50
2022-11-15T11:52:01.872Z,7.50
2022-11-15T11:54:48.168Z,7.50
2022-11-15T11:57:58.304Z,7.50
2022-11-15T12:00:29.552Z,7.50
2022-11-15T12:03:25.554Z,7.50
2022-11-15T12:06:02.144Z,7.60
2022-11-15T12:08:49.222Z,7.60
2022-11-15T12:11:41.891Z,7.60
2022-11-15T12:14:26.410Z,7.60
2022-11-15T12:16:53.642Z,7.50
2022-11-15T12:19:21.674Z,7.60
2022-11-15T12:22:11.728Z,7.60
2022-11-15T12:24:46.960Z,7.60
2022-11-15T12:27:40.018Z,7.60
2022-11-15T12:30:20.956Z,7.70
2022-11-15T12:33:30.657Z,7.70
2022-11-15T12:36:13.767Z,7.60
2022-11-15T12:39:03.742Z,7.60
2022-11-15T12:41:38.071Z,7.60
2022-11-15T12:44:33.001Z,7.60
2022-11-15T12:47:23.395Z,7.70
2022-11-15T12:49:55.198Z,7.70
2022-11-15T12:52:23.458Z,7.70
2022-11-15T12:54:54.574Z,7.70
2022-11-15T12:57:41.025Z,7.70
2022-11-15T13:00:16.312Z,7.70
2022-11-15T13:02:48.472Z,7.70
2022-11-15T13:05:16.637Z,7.70
2022-11-15T13:07:45.412Z,7.70
2022-11-15T13:10:28.261Z,7.70
2022-11-15T13:13:02.450Z,7.70
2022-11-15T13:15:52.901Z,7.80
2022-11-15T13:18:34.363Z,7.80
2022-11-15T13:21:23.085Z,7.80
2022-11-15T13:23:56.584Z,7.80
2022-11-15T13:26:33.856Z,7.70
2022-11-15T13:29:01.789Z,7.80
2022-11-15T13:31:33.296Z,7.80
2022-11-15T13:37:31.263Z,7.90
2022-11-15T13:40:21.986Z,7.90
2022-11-15T13:42:52.618Z,7.90
2022-11-15T13:45:21.369Z,7.90
2022-11-15T13:47:54.732Z,7.90
2022-11-15T13:50:26.377Z,7.90
2022-11-15T13:52:58.827Z,7.90
2022-11-15T13:55:27.843Z,7.90
2022-11-15T13:58:00.918Z,7.90
2022-11-15T14:00:41.288Z,7.90
2022-11-15T14:03:16.690Z,7.90
2022-11-15T14:05:45.790Z,7.90
2022-11-15T14:08:25.566Z,7.90
2022-11-15T14:11:18.089Z,7.90
2022-11-15T14:14:08.509Z,7.90
2022-11-15T14:16:43.315Z,7.90
2022-11-15T14:19:50.038Z,7.90
2022-11-15T14:22:24.047Z,7.90
2022-11-15T14:25:14.098Z,7.90
2022-11-15T14:28:29.667Z,7.90
2022-11-15T14:30:59.553Z,7.90
2022-11-15T14:33:35.916Z,7.90
2022-11-15T14:36:14.967Z,7.80
2022-11-15T14:38:44.040Z,7.90
2022-11-15T14:41:25.980Z,7.90
2022-11-15T14:43:54.372Z,7.90
2022-11-15T14:46:24.525Z,7.90
2022-11-15T14:48:52.731Z,7.90
2022-11-15T14:51:20.990Z,7.80
2022-11-15T14:53:49.551Z,7.90
2022-11-15T14:56:17.834Z,7.90
2022-11-15T14:58:44.973Z,7.90
2022-11-15T15:01:25.013Z,7.90
2022-11-15T15:03:57.068Z,7.90
2022-11-15T15:06:26.353Z,7.90
2022-11-15T15:08:58.573Z,7.90
2022-11-15T15:11:29.486Z,7.90
2022-11-15T15:14:02.317Z,7.90
2022-11-15T15:16:31.868Z,7.90
2022-11-15T15:19:03.446Z,7.90
2022-11-15T15:21:37.184Z,7.90
2022-11-15T15:24:05.825Z,7.90
2022-11-15T15:26:37.763Z,7.90
2022-11-15T15:29:10.092Z,7.90
2022-11-15T15:31:38.299Z,7.90
2022-11-15T15:34:06.029Z,7.90
2022-11-15T15:36:33.293Z,7.90
2022-11-15T15:39:02.420Z,8.00
2022-11-15T15:41:29.695Z,8.00
2022-11-15T15:43:56.869Z,8.00
2022-11-15T15:46:30.150Z,8.00
2022-11-15T15:48:58.330Z,8.00
2022-11-15T15:51:25.477Z,8.00
2022-11-15T15:53:59.367Z,8.00
2022-11-15T15:56:26.701Z,8.00
2022-11-15T15:58:56.636Z,8.00
2022-11-15T16:01:29.985Z,8.00
2022-11-15T16:03:57.232Z,8.00
2022-11-15T16:06:54.065Z,8.00
2022-11-15T16:09:43.359Z,8.00
2022-11-15T16:12:17.556Z,8.00
2022-11-15T16:14:44.696Z,8.00
2022-11-15T16:17:24.297Z,8.00
2022-11-15T16:19:51.466Z,8.00
2022-11-15T16:22:18.621Z,8.00
2022-11-15T16:24:46.571Z,8.00
2022-11-15T16:27:22.777Z,8.00
2022-11-15T16:29:51.347Z,8.00
2022-11-15T16:32:18.480Z,8.00
2022-11-15T16:34:52.029Z,8.00
2022-11-15T16:37:26.095Z,8.00
2022-11-15T16:39:57.105Z,8.00
2022-11-15T16:42:29.178Z,8.10
2022-11-15T16:44:56.381Z,8.10
2022-11-15T16:47:36.738Z,8.10
2022-11-15T16:50:04.272Z,8.10
2022-11-15T16:53:03.049Z,8.10
2022-11-15T16:55:31.409Z,8.10
2022-11-15T16:58:09.828Z,8.20
2022-11-15T17:01:03.031Z,8.10
2022-11-15T17:03:32.137Z,8.10
2022-11-15T17:06:00.648Z,8.20
2022-11-15T17:08:28.771Z,8.10
2022-11-15T17:10:55.964Z,8.10
2022-11-15T17:13:23.211Z,8.20
2022-11-15T17:15:50.393Z,8.20
2022-11-15T17:18:17.649Z,8.20
2022-11-15T17:20:44.929Z,8.10
2022-11-15T17:23:17.761Z,8.20
2022-11-15T17:25:45.075Z,8.20
2022-11-15T17:28:12.345Z,8.20
2022-11-15T17:30:43.307Z,8.20
2022-11-15T17:33:12.691Z,8.20
2022-11-15T17:36:12.471Z,8.20
2022-11-15T17:38:44.119Z,8.20
2022-11-15T17:41:50.458Z,8.10
2022-11-15T17:44:17.673Z,8.20
2022-11-15T17:46:59.151Z,8.20
2022-11-15T17:49:27.347Z,8.20
2022-11-15T17:51:54.520Z,8.20
2022-11-15T17:54:22.781Z,8.20
2022-11-15T18:00:48.560Z,8.10
2022-11-15T18:03:16.798Z,8.20
2022-11-15T18:05:47.268Z,8.20
2022-11-15T18:08:24.068Z,8.20
2022-11-15T18:11:04.793Z,8.10
2022-11-15T18:13:33.644Z,8.10
2022-11-15T18:16:04.161Z,8.10
2022-11-15T18:18:34.330Z,8.20
2022-11-15T18:21:22.862Z,8.10
2022-11-15T18:23:55.839Z,8.10
2022-11-15T18:26:27.169Z,8.10
2022-11-15T18:28:58.760Z,8.10
2022-11-15T18:31:37.096Z,8.10
2022-11-15T18:34:06.084Z,8.20
2022-11-15T18:36:40.305Z,8.20
2022-11-15T18:39:16.564Z,8.20
2022-11-15T18:42:16.595Z,8.20
2022-11-15T18:44:44.823Z,8.20
2022-11-15T18:47:24.443Z,8.20
2022-11-15T18:49:53.862Z,8.10
2022-11-15T18:52:21.024Z,8.10
2022-11-15T18:54:51.330Z,8.10
2022-11-15T18:57:31.506Z,8.10
2022-11-15T18:59:58.744Z,8.10
2022-11-15T19:02:38.164Z,8.20
2022-11-15T19:05:06.913Z,8.10
2022-11-15T19:07:34.201Z,8.10
2022-11-15T19:10:05.862Z,8.10
2022-11-15T19:12:36.195Z,8.10
2022-11-15T19:15:10.293Z,8.10
2022-11-15T19:17:41.217Z,8.10
2022-11-15T19:20:45.258Z,8.10
2022-11-15T19:23:12.553Z,8.10
2022-11-15T19:25:39.768Z,8.10
2022-11-15T19:28:09.029Z,8.10
2022-11-15T19:31:08.066Z,8.10
2022-11-15T19:33:38.389Z,8.10
2022-11-15T19:36:13.443Z,8.10
2022-11-15T19:38:42.352Z,8.10
2022-11-15T19:41:15.954Z,8.10
2022-11-15T19:43:48.532Z,8.10
2022-11-15T19:46:22.110Z,8.10
2022-11-15T19:48:55.731Z,8.10
2022-11-15T19:51:26.550Z,8.10
2022-11-15T19:54:09.916Z,8.10
2022-11-15T19:56:38.307Z,8.10
2022-11-15T19:59:23.770Z,8.10
2022-11-15T20:01:51.080Z,8.10
2022-11-15T20:04:18.480Z,8.10
2022-11-15T20:06:47.246Z,8.10
2022-11-15T20:09:53.971Z,8.10
2022-11-15T20:12:21.281Z,8.10
2022-11-15T20:14:51.469Z,8.10
2022-11-15T20:17:19.034Z,8.10
2022-11-15T20:20:12.993Z,8.10
2022-11-15T20:22:59.958Z,8.10
2022-11-15T20:25:31.700Z,8.10
2022-11-15T20:27:58.987Z,8.10
2022-11-15T20:30:27.329Z,8.10
2022-11-15T20:32:58.653Z,8.10
2022-11-15T20:35:33.883Z,8.10
2022-11-15T20:38:07.803Z,8.10
2022-11-15T20:40:50.678Z,8.10
2022-11-15T20:43:20.623Z,8.00
2022-11-15T20:45:52.942Z,8.00
2022-11-15T20:48:21.564Z,8.10
2022-11-15T20:51:21.265Z,8.10
2022-11-15T20:53:49.477Z,8.00
2022-11-15T20:56:21.932Z,8.00
2022-11-15T20:58:50.800Z,8.00
2022-11-15T21:01:29.196Z,8.10
2022-11-15T21:04:00.142Z,8.00
2022-11-15T21:06:29.948Z,8.00
2022-11-15T21:09:17.296Z,8.00
2022-11-15T21:12:07.491Z,8.00
2022-11-15T21:14:35.272Z,8.00
2022-11-15T21:17:12.205Z,8.00
2022-11-15T21:19:39.480Z,8.00
2022-11-15T21:22:14.368Z,8.00
2022-11-15T21:24:42.955Z,8.00
2022-11-15T21:27:19.640Z,8.00
2022-11-15T21:29:50.599Z,8.00
2022-11-15T21:32:29.665Z,8.00
2022-11-15T21:35:01.316Z,8.00
2022-11-15T21:37:28.575Z,8.00
2022-11-15T21:40:00.752Z,8.00
2022-11-15T21:42:32.645Z,8.00
2022-11-15T21:44:59.841Z,8.00
2022-11-15T21:47:27.076Z,8.00
2022-11-15T21:50:17.111Z,8.00
2022-11-15T21:52:47.351Z,8.00
2022-11-15T21:55:18.662Z,7.90
2022-11-15T21:57:46.857Z,7.90
2022-11-15T22:00:49.584Z,8.00
2022-11-15T22:03:16.834Z,7.90
2022-11-15T22:05:50.166Z,8.00
2022-11-15T22:08:17.331Z,7.90
2022-11-15T22:10:50.870Z,7.90
2022-11-15T22:13:19.926Z,7.90
2022-11-15T22:15:48.483Z,7.90
2022-11-15T22:18:15.803Z,7.90
2022-11-15T22:21:07.066Z,7.90
2022-11-15T22:23:36.632Z,7.90
2022-11-15T22:26:04.902Z,7.90
2022-11-15T22:28:32.535Z,7.90
2022-11-15T22:31:06.770Z,7.90
2022-11-15T22:33:39.180Z,7.90
2022-11-15T22:36:07.544Z,7.90
2022-11-15T22:38:59.519Z,7.90
2022-11-15T22:41:27.797Z,7.90
2022-11-15T22:43:54.932Z,7.90
2022-11-15T22:46:23.222Z,7.90
2022-11-15T22:49:02.116Z,7.90
2022-11-15T22:51:32.757Z,7.90
2022-11-15T22:54:32.628Z,7.90
2022-11-15T22:57:02.293Z,7.90
2022-11-15T22:59:53.053Z,7.90
2022-11-15T23:02:21.330Z,7.90
2022-11-15T23:04:51.658Z,7.90
2022-11-15T23:07:20.196Z,7.90
2022-11-15T23:10:15.530Z,7.90
2022-11-15T23:13:03.861Z,7.90
2022-11-15T23:16:08.168Z,7.90
2022-11-15T23:18:41.922Z,7.90
2022-11-15T23:21:11.882Z,7.90
2022-11-15T23:23:39.338Z,7.90
2022-11-15T23:26:08.171Z,7.90
2022-11-15T23:28:36.516Z,7.90
2022-11-15T23:31:26.833Z,7.90
2022-11-15T23:33:59.721Z,7.90
2022-11-15T23:36:29.454Z,7.90
2022-11-15T23:38:58.761Z,7.90
2022-11-15T23:41:26.039Z,7.90
2022-11-15T23:43:59.406Z,7.90
2022-11-15T23:46:39.030Z,7.90
2022-11-15T23:49:14.059Z,7.90
2022-11-15T23:51:41.889Z,7.90
2022-11-15T23:54:12.341Z,7.90
2022-11-15T23:56:51.994Z,7.90
2022-11-15T23:59:19.255Z,7.90
